createdAt,value
2023-04-16T00:01:26.666Z,1.50
2023-04-16T00:03:53.457Z,1.27
2023-04-16T00:06:20.167Z,1.40
2023-04-16T00:08:46.695Z,1.50
2023-04-16T00:11:13.250Z,1.40
2023-04-16T00:13:39.730Z,1.50
2023-04-16T00:16:06.690Z,1.50
2023-04-16T00:18:33.234Z,1.23
2023-04-16T00:20:59.770Z,1.40
2023-04-16T00:23:26.262Z,1.53
2023-04-16T00:25:53.830Z,1.40
2023-04-16T00:28:20.453Z,1.37
2023-04-16T00:30:47.118Z,1.40
2023-04-16T00:33:13.681Z,1.17
2023-04-16T00:35:40.416Z,1.30
2023-04-16T00:38:06.991Z,1.53
2023-04-16T00:40:33.482Z,1.40
2023-04-16T00:43:00.033Z,1.30
2023-04-16T00:45:26.530Z,1.60
2023-04-16T00:47:53.068Z,1.50
2023-04-16T00:50:19.818Z,1.47
2023-04-16T00:52:49.169Z,1.83
2023-04-16T00:55:17.702Z,1.50
2023-04-16T00:57:44.693Z,1.40
2023-04-16T01:00:12.131Z,1.53
2023-04-16T01:02:38.838Z,1.50
2023-04-16T01:05:05.739Z,1.67
2023-04-16T01:07:32.291Z,1.80
2023-04-16T01:09:59.366Z,1.53
2023-04-16T01:12:25.846Z,1.33
2023-04-16T01:14:52.410Z,1.40
2023-04-16T01:17:18.891Z,1.40
2023-04-16T01:19:45.449Z,1.40
2023-04-16T01:22:12.004Z,1.20
2023-04-16T01:24:38.570Z,1.50
2023-04-16T01:27:05.178Z,1.60
2023-04-16T01:29:31.685Z,1.40
2023-04-16T01:31:58.285Z,1.47
2023-04-16T01:34:25.231Z,1.27
2023-04-16T01:36:51.942Z,1.47
2023-04-16T01:39:19.583Z,1.30
2023-04-16T01:41:46.587Z,1.23
2023-04-16T01:44:13.102Z,1.47
2023-04-16T01:46:39.673Z,1.10
2023-04-16T01:49:07.370Z,1.30
2023-04-16T01:51:34.021Z,1.50
2023-04-16T01:54:01.151Z,1.40
2023-04-16T01:56:27.692Z,1.20
2023-04-16T01:58:54.354Z,1.20
2023-04-16T02:01:21.197Z,1.40
2023-04-16T02:03:47.865Z,1.33
2023-04-16T02:06:15.042Z,1.17
2023-04-16T02:08:41.852Z,1.30
2023-04-16T02:11:08.437Z,1.90
2023-04-16T02:13:35.107Z,1.40
2023-04-16T02:16:02.511Z,1.47
2023-04-16T02:18:29.151Z,1.17
2023-04-16T02:20:57.976Z,1.33
2023-04-16T02:23:24.454Z,1.23
2023-04-16T02:25:50.960Z,1.20
2023-04-16T02:28:17.496Z,1.20
2023-04-16T02:30:44.050Z,1.20
2023-04-16T02:33:11.384Z,1.40
2023-04-16T02:35:38.616Z,1.33
2023-04-16T02:38:05.499Z,1.30
2023-04-16T02:40:32.057Z,1.13
2023-04-16T02:42:58.529Z,1.30
2023-04-16T02:45:25.125Z,1.10
2023-04-16T02:47:51.706Z,1.20
2023-04-16T02:50:18.363Z,1.37
2023-04-16T02:52:45.003Z,1.17
2023-04-16T02:55:11.728Z,1.30
2023-04-16T02:57:38.285Z,1.40
2023-04-16T03:00:05.225Z,1.30
2023-04-16T03:02:31.833Z,1.43
2023-04-16T03:04:58.489Z,1.40
2023-04-16T03:07:25.170Z,1.10
2023-04-16T03:09:51.826Z,1.40
2023-04-16T03:12:18.384Z,1.10
2023-04-16T03:14:44.907Z,1.30
2023-04-16T03:17:11.552Z,1.37
2023-04-16T03:19:38.032Z,1.47
2023-04-16T03:22:04.678Z,1.33
2023-04-16T03:24:31.245Z,1.10
2023-04-16T03:26:58.444Z,1.23
2023-04-16T03:29:26.808Z,1.37
2023-04-16T03:31:53.423Z,1.17
2023-04-16T03:34:19.936Z,1.20
2023-04-16T03:36:46.487Z,1.33
2023-04-16T03:39:13.052Z,1.20
2023-04-16T03:41:39.560Z,1.50
2023-04-16T03:44:06.255Z,1.13
2023-04-16T03:46:32.837Z,1.17
2023-04-16T03:48:59.404Z,1.20
2023-04-16T03:51:26.520Z,1.00
2023-04-16T03:53:53.156Z,1.13
2023-04-16T03:56:19.707Z,1.33
2023-04-16T03:58:46.209Z,1.40
2023-04-16T04:01:12.737Z,1.10
2023-04-16T04:03:39.536Z,1.30
2023-04-16T04:06:09.557Z,1.10
2023-04-16T04:08:36.496Z,1.20
2023-04-16T04:11:03.021Z,1.17
2023-04-16T04:13:29.595Z,1.30
2023-04-16T04:15:56.214Z,1.10
2023-04-16T04:18:22.798Z,1.17
2023-04-16T04:20:49.373Z,1.03
2023-04-16T04:23:16.194Z,1.20
2023-04-16T04:25:42.694Z,1.10
2023-04-16T04:28:09.233Z,1.40
2023-04-16T04:30:36.060Z,1.47
2023-04-16T04:33:02.627Z,1.17
2023-04-16T04:35:29.137Z,1.23
2023-04-16T04:37:55.724Z,1.13
2023-04-16T04:40:22.354Z,1.20
2023-04-16T04:42:49.004Z,1.20
2023-04-16T04:45:15.597Z,1.20
2023-04-16T04:47:42.223Z,1.13
2023-04-16T04:50:09.262Z,1.30
2023-04-16T04:52:35.927Z,1.00
2023-04-16T04:55:02.441Z,1.40
2023-04-16T04:57:28.977Z,1.33
2023-04-16T04:59:55.537Z,1.20
2023-04-16T05:02:22.096Z,0.93
2023-04-16T05:04:48.749Z,1.10
2023-04-16T05:07:15.308Z,1.80
2023-04-16T05:09:41.831Z,1.03
2023-04-16T05:12:08.448Z,1.30
2023-04-16T05:14:36.313Z,1.37
2023-04-16T05:17:02.950Z,1.10
2023-04-16T05:19:29.621Z,1.43
2023-04-16T05:21:56.258Z,1.10
2023-04-16T05:24:22.930Z,1.10
2023-04-16T05:26:49.465Z,1.10
2023-04-16T05:29:15.991Z,1.10
2023-04-16T05:31:42.545Z,1.00
2023-04-16T05:34:09.072Z,1.00
2023-04-16T05:36:35.769Z,1.00
2023-04-16T05:39:02.376Z,1.20
2023-04-16T05:41:28.995Z,1.30
2023-04-16T05:43:55.661Z,1.17
2023-04-16T05:46:22.272Z,1.13
2023-04-16T05:48:48.787Z,1.00
2023-04-16T05:51:15.351Z,1.17
2023-04-16T05:53:42.026Z,1.20
2023-04-16T05:56:08.640Z,1.00
2023-04-16T05:58:35.226Z,1.30
2023-04-16T06:01:01.823Z,1.00
2023-04-16T06:03:28.484Z,1.00
2023-04-16T06:05:55.443Z,1.10
2023-04-16T06:08:22.171Z,0.90
2023-04-16T06:10:48.699Z,1.30
2023-04-16T06:13:15.199Z,3.37
2023-04-16T06:15:41.883Z,1.10
2023-04-16T06:18:08.495Z,1.10
2023-04-16T06:20:35.067Z,1.30
2023-04-16T06:23:01.611Z,2.80
2023-04-16T06:25:28.189Z,1.33
2023-04-16T06:27:54.686Z,1.23
2023-04-16T06:30:21.212Z,1.10
2023-04-16T06:32:48.022Z,1.10
2023-04-16T06:35:14.721Z,1.10
2023-04-16T06:37:41.551Z,1.47
2023-04-16T06:40:08.634Z,1.20
2023-04-16T06:42:35.339Z,1.43
2023-04-16T06:45:01.896Z,3.83
2023-04-16T06:47:28.441Z,8.80
2023-04-16T06:49:55.059Z,19.43
2023-04-16T06:52:21.565Z,18.13
2023-04-16T06:54:48.343Z,16.57
2023-04-16T06:57:14.860Z,9.13
2023-04-16T06:59:41.448Z,3.97
2023-04-16T07:02:09.992Z,3.67
2023-04-16T07:04:36.703Z,4.57
2023-04-16T07:07:03.220Z,3.60
2023-04-16T07:09:29.700Z,4.80
2023-04-16T07:11:56.290Z,5.20
2023-04-16T07:14:22.897Z,3.07
2023-04-16T07:16:49.543Z,2.90
2023-04-16T07:19:16.135Z,3.30
2023-04-16T07:21:43.737Z,6.80
2023-04-16T07:24:11.818Z,2.60
2023-04-16T07:26:38.382Z,2.70
2023-04-16T07:29:04.949Z,3.13
2023-04-16T07:31:31.509Z,2.60
2023-04-16T07:33:58.478Z,2.70
2023-04-16T07:36:25.021Z,3.47
2023-04-16T07:38:51.566Z,3.53
2023-04-16T07:41:18.047Z,3.93
2023-04-16T07:43:44.561Z,2.57
2023-04-16T07:46:11.355Z,2.97
2023-04-16T07:48:37.890Z,2.00
2023-04-16T07:51:04.480Z,2.90
2023-04-16T07:53:31.010Z,1.80
2023-04-16T07:55:57.557Z,2.03
2023-04-16T07:58:24.071Z,2.07
2023-04-16T08:00:51.346Z,2.03
2023-04-16T08:03:18.505Z,1.87
2023-04-16T08:05:45.280Z,3.40
2023-04-16T08:08:11.857Z,6.47
2023-04-16T08:10:39.086Z,4.43
2023-04-16T08:13:05.722Z,2.80
2023-04-16T08:15:32.421Z,5.77
2023-04-16T08:17:59.701Z,4.67
2023-04-16T08:20:26.302Z,6.13
2023-04-16T08:22:53.808Z,3.50
2023-04-16T08:25:20.818Z,2.97
2023-04-16T08:27:47.430Z,2.50
2023-04-16T08:30:15.159Z,4.73
2023-04-16T08:32:41.754Z,2.40
2023-04-16T08:35:08.898Z,2.50
2023-04-16T08:37:35.435Z,3.50
2023-04-16T08:40:02.560Z,2.70
2023-04-16T08:42:45.049Z,6.10
2023-04-16T08:45:16.140Z,3.40
2023-04-16T08:47:46.783Z,1.90
2023-04-16T08:50:17.094Z,2.60
2023-04-16T08:52:47.301Z,1.70
2023-04-16T08:55:14.534Z,1.67
2023-04-16T08:57:47.515Z,3.80
2023-04-16T09:00:14.599Z,1.70
2023-04-16T09:02:41.224Z,1.93
2023-04-16T09:05:08.378Z,3.63
2023-04-16T09:07:35.414Z,1.90
2023-04-16T09:10:02.071Z,1.60
2023-04-16T09:12:28.669Z,2.27
2023-04-16T09:14:55.227Z,1.73
2023-04-16T09:17:21.854Z,1.60
2023-04-16T09:19:48.498Z,2.83
2023-04-16T09:22:15.065Z,1.60
2023-04-16T09:24:41.983Z,1.57
2023-04-16T09:27:08.860Z,1.73
2023-04-16T09:29:36.492Z,1.57
2023-04-16T09:32:10.090Z,1.53
2023-04-16T09:34:54.600Z,1.73
2023-04-16T09:37:21.134Z,2.70
2023-04-16T09:39:56.574Z,1.20
2023-04-16T09:42:30.973Z,3.30
2023-04-16T09:45:00.320Z,1.87
2023-04-16T09:47:41.724Z,1.53
2023-04-16T09:50:11.272Z,1.80
2023-04-16T09:52:39.057Z,2.70
2023-04-16T09:55:06.155Z,1.50
2023-04-16T09:57:32.708Z,1.37
2023-04-16T10:00:03.590Z,1.50
2023-04-16T10:02:30.611Z,1.73
2023-04-16T10:04:57.852Z,1.17
2023-04-16T10:07:28.088Z,1.37
2023-04-16T10:09:55.824Z,2.33
2023-04-16T10:12:22.317Z,1.17
2023-04-16T10:14:50.287Z,1.53
2023-04-16T10:17:17.306Z,1.30
2023-04-16T10:19:43.812Z,1.40
2023-04-16T10:22:10.350Z,1.50
2023-04-16T10:24:36.933Z,1.43
2023-04-16T10:27:03.596Z,1.60
2023-04-16T10:29:30.775Z,1.50
2023-04-16T10:31:57.383Z,1.27
2023-04-16T10:34:24.414Z,1.47
2023-04-16T10:36:52.935Z,1.40
2023-04-16T10:39:21.286Z,1.50
2023-04-16T10:41:47.912Z,1.57
2023-04-16T10:44:16.670Z,1.73
2023-04-16T10:46:43.950Z,2.07
2023-04-16T10:49:19.135Z,1.10
2023-04-16T10:52:03.731Z,1.10
2023-04-16T10:54:30.893Z,1.43
2023-04-16T10:56:59.202Z,1.43
2023-04-16T10:59:25.922Z,1.40
2023-04-16T11:01:54.559Z,1.40
2023-04-16T11:04:21.328Z,1.50
2023-04-16T11:07:01.023Z,1.63
2023-04-16T11:09:56.484Z,1.57
2023-04-16T11:12:27.863Z,2.07
2023-04-16T11:15:04.294Z,1.70
2023-04-16T11:17:33.034Z,1.93
2023-04-16T11:19:59.638Z,1.67
2023-04-16T11:22:26.296Z,1.23
2023-04-16T11:24:56.492Z,1.20
2023-04-16T11:27:26.371Z,2.43
2023-04-16T11:30:06.380Z,1.57
2023-04-16T11:32:33.905Z,1.30
2023-04-16T11:35:03.771Z,1.23
2023-04-16T11:37:36.990Z,1.63
2023-04-16T11:40:07.243Z,1.20
2023-04-16T11:42:37.134Z,1.20
2023-04-16T11:45:04.118Z,1.40
2023-04-16T11:47:31.447Z,2.17
2023-04-16T11:49:58.522Z,1.30
2023-04-16T11:52:27.775Z,1.77
2023-04-16T11:54:54.389Z,1.50
2023-04-16T11:57:27.831Z,1.20
2023-04-16T12:00:01.935Z,1.33
2023-04-16T12:02:42.397Z,1.40
2023-04-16T12:05:30.767Z,1.00
2023-04-16T12:07:58.160Z,1.10
2023-04-16T12:10:24.838Z,1.10
2023-04-16T12:12:51.880Z,1.43
2023-04-16T12:15:18.472Z,1.20
2023-04-16T12:17:45.049Z,1.30
2023-04-16T12:20:17.653Z,1.70
2023-04-16T12:22:48.281Z,1.30
2023-04-16T12:25:16.348Z,1.00
2023-04-16T12:27:47.263Z,1.33
2023-04-16T12:30:15.432Z,2.63
2023-04-16T12:32:42.569Z,1.30
2023-04-16T12:35:12.907Z,1.23
2023-04-16T12:37:39.528Z,1.30
2023-04-16T12:40:07.026Z,1.77
2023-04-16T12:42:37.130Z,1.40
2023-04-16T12:45:04.975Z,3.37
2023-04-16T12:47:34.522Z,1.50
2023-04-16T12:50:01.388Z,3.40
2023-04-16T12:52:28.057Z,5.90
2023-04-16T12:54:54.647Z,1.77
2023-04-16T12:57:21.230Z,4.30
2023-04-16T12:59:47.746Z,1.70
2023-04-16T13:02:14.378Z,2.13
2023-04-16T13:04:41.128Z,3.20
2023-04-16T13:07:08.024Z,2.60
2023-04-16T13:09:34.610Z,1.77
2023-04-16T13:12:01.579Z,1.83
2023-04-16T13:14:28.135Z,2.33
2023-04-16T13:16:54.695Z,3.43
2023-04-16T13:19:21.246Z,2.00
2023-04-16T13:21:47.827Z,5.47
2023-04-16T13:24:14.383Z,2.53
2023-04-16T13:26:40.907Z,3.47
2023-04-16T13:29:07.529Z,5.50
2023-04-16T13:31:34.231Z,5.57
2023-04-16T13:34:00.873Z,6.07
2023-04-16T13:36:27.825Z,5.90
2023-04-16T13:38:54.602Z,7.60
2023-04-16T13:41:21.172Z,8.33
2023-04-16T13:43:47.726Z,3.50
2023-04-16T13:46:14.299Z,5.57
2023-04-16T13:48:40.845Z,6.20
2023-04-16T13:51:08.381Z,4.67
2023-04-16T13:53:34.974Z,5.70
2023-04-16T13:56:03.657Z,3.40
2023-04-16T13:58:30.376Z,4.97
2023-04-16T14:00:56.944Z,3.90
2023-04-16T14:03:25.483Z,4.60
2023-04-16T14:05:52.153Z,6.53
2023-04-16T14:08:21.257Z,4.40
2023-04-16T14:10:48.272Z,5.90
2023-04-16T14:13:14.795Z,2.83
2023-04-16T14:15:41.319Z,6.53
2023-04-16T14:18:07.979Z,4.53
2023-04-16T14:20:34.553Z,3.30
2023-04-16T14:23:01.104Z,5.53
2023-04-16T14:25:27.738Z,4.80
2023-04-16T14:27:54.281Z,3.00
2023-04-16T14:30:20.996Z,5.80
2023-04-16T14:32:47.595Z,6.17
2023-04-16T14:35:14.154Z,5.80
2023-04-16T14:37:41.330Z,4.00
2023-04-16T14:40:08.990Z,4.13
2023-04-16T14:42:39.094Z,2.63
2023-04-16T14:45:06.700Z,3.37
2023-04-16T14:47:36.900Z,2.93
2023-04-16T14:50:03.715Z,2.80
2023-04-16T14:52:33.304Z,4.93
2023-04-16T14:54:59.849Z,2.70
2023-04-16T14:57:26.807Z,3.53
2023-04-16T14:59:53.375Z,2.77
2023-04-16T15:02:20.057Z,3.63
2023-04-16T15:04:46.646Z,5.67
2023-04-16T15:07:13.205Z,3.80
2023-04-16T15:09:39.768Z,5.43
2023-04-16T15:12:06.407Z,2.97
2023-04-16T15:14:32.954Z,3.37
2023-04-16T15:16:59.566Z,3.37
2023-04-16T15:19:26.229Z,3.93
2023-04-16T15:21:52.969Z,6.43
2023-04-16T15:24:19.477Z,5.30
2023-04-16T15:26:46.263Z,2.77
2023-04-16T15:29:12.863Z,3.13
2023-04-16T15:31:39.460Z,3.00
2023-04-16T15:34:05.965Z,3.00
2023-04-16T15:36:32.601Z,3.93
2023-04-16T15:38:59.110Z,3.33
2023-04-16T15:41:25.723Z,2.10
2023-04-16T15:43:52.305Z,3.67
2023-04-16T15:46:18.947Z,2.23
2023-04-16T15:48:45.740Z,2.13
2023-04-16T15:51:12.301Z,4.27
2023-04-16T15:53:39.016Z,2.30
2023-04-16T15:56:05.902Z,2.53
2023-04-16T15:58:32.512Z,2.93
2023-04-16T16:00:59.104Z,3.60
2023-04-16T16:03:26.338Z,2.77
2023-04-16T16:05:53.045Z,4.97
2023-04-16T16:08:19.615Z,2.40
2023-04-16T16:10:46.689Z,3.17
2023-04-16T16:13:15.961Z,3.90
2023-04-16T16:15:42.477Z,3.73
2023-04-16T16:18:09.024Z,2.87
2023-04-16T16:20:36.680Z,5.40
2023-04-16T16:23:03.428Z,4.27
2023-04-16T16:25:30.357Z,5.93
2023-04-16T16:27:56.916Z,5.60
2023-04-16T16:30:23.508Z,5.80
2023-04-16T16:32:50.762Z,9.43
2023-04-16T16:35:17.369Z,4.40
2023-04-16T16:37:44.006Z,5.77
2023-04-16T16:40:11.199Z,4.53
2023-04-16T16:42:37.827Z,6.83
2023-04-16T16:45:06.030Z,6.67
2023-04-16T16:47:33.068Z,4.30
2023-04-16T16:50:01.410Z,4.60
2023-04-16T16:52:29.379Z,9.80
2023-04-16T16:54:56.843Z,6.57
2023-04-16T16:57:26.433Z,6.27
2023-04-16T16:59:54.411Z,6.37
2023-04-16T17:02:21.110Z,6.43
2023-04-16T17:04:47.875Z,7.27
2023-04-16T17:07:14.538Z,8.20
2023-04-16T17:09:41.281Z,5.27
2023-04-16T17:12:07.993Z,6.60
2023-04-16T17:14:35.281Z,8.23
2023-04-16T17:17:01.988Z,6.13
2023-04-16T17:19:28.652Z,6.87
2023-04-16T17:21:55.314Z,4.07
2023-04-16T17:24:22.036Z,10.40
2023-04-16T17:26:48.564Z,6.67
2023-04-16T17:29:15.385Z,6.50
2023-04-16T17:31:41.884Z,8.13
2023-04-16T17:34:08.593Z,5.63
2023-04-16T17:36:35.369Z,10.10
2023-04-16T17:39:02.338Z,6.27
2023-04-16T17:41:28.882Z,3.83
2023-04-16T17:43:55.439Z,6.03
2023-04-16T17:46:21.997Z,4.87
2023-04-16T17:48:48.935Z,6.70
2023-04-16T17:51:16.570Z,6.30
2023-04-16T17:53:43.585Z,6.13
2023-04-16T17:56:10.850Z,7.83
2023-04-16T17:58:37.410Z,5.10
2023-04-16T18:01:05.472Z,4.10
2023-04-16T18:03:32.442Z,5.43
2023-04-16T18:05:59.310Z,4.80
2023-04-16T18:08:26.198Z,4.60
2023-04-16T18:10:52.801Z,5.03
2023-04-16T18:13:19.333Z,5.10
2023-04-16T18:15:46.122Z,5.27
2023-04-16T18:18:12.797Z,5.40
2023-04-16T18:20:39.279Z,6.40
2023-04-16T18:23:05.923Z,4.97
2023-04-16T18:25:34.918Z,5.37
2023-04-16T18:28:03.618Z,5.63
2023-04-16T18:30:30.307Z,4.00
2023-04-16T18:33:25.471Z,6.60
2023-04-16T18:35:43.490Z,3.90
2023-04-16T18:38:10.089Z,4.37
2023-04-16T18:40:36.994Z,6.37
2023-04-16T18:43:03.977Z,5.93
2023-04-16T18:45:30.888Z,6.17
2023-04-16T18:48:02.795Z,6.37
2023-04-16T18:50:29.492Z,6.43
2023-04-16T18:52:56.099Z,7.23
2023-04-16T18:55:22.700Z,6.70
2023-04-16T18:57:49.279Z,7.40
2023-04-16T19:00:16.413Z,3.93
2023-04-16T19:02:43.042Z,4.80
2023-04-16T19:05:09.892Z,3.73
2023-04-16T19:07:37.546Z,3.97
2023-04-16T19:10:05.266Z,4.70
2023-04-16T19:12:32.215Z,6.53
2023-04-16T19:14:58.991Z,5.33
2023-04-16T19:17:25.597Z,4.53
2023-04-16T19:19:52.189Z,8.33
2023-04-16T19:22:18.670Z,4.93
2023-04-16T19:24:45.170Z,4.20
2023-04-16T19:27:11.706Z,4.30
2023-04-16T19:29:38.297Z,7.10
2023-04-16T19:32:04.945Z,6.10
2023-04-16T19:34:31.534Z,3.20
2023-04-16T19:36:58.154Z,4.20
2023-04-16T19:39:31.529Z,4.10
2023-04-16T19:41:58.151Z,5.67
2023-04-16T19:44:25.217Z,5.77
2023-04-16T19:46:51.735Z,5.23
2023-04-16T19:49:18.396Z,5.30
2023-04-16T19:51:46.146Z,8.60
2023-04-16T19:54:13.338Z,7.00
2023-04-16T19:56:39.926Z,15.73
2023-04-16T19:59:06.873Z,12.60
2023-04-16T20:01:33.526Z,18.83
2023-04-16T20:04:00.306Z,26.67
2023-04-16T20:06:27.782Z,32.20
2023-04-16T20:08:54.775Z,21.17
2023-04-16T20:11:21.347Z,19.77
2023-04-16T20:13:48.076Z,25.73
2023-04-16T20:16:14.770Z,24.10
2023-04-16T20:18:41.536Z,18.57
2023-04-16T20:21:08.853Z,23.83
2023-04-16T20:23:35.450Z,19.37
2023-04-16T20:26:02.000Z,18.43
2023-04-16T20:28:28.521Z,22.87
2023-04-16T20:30:55.086Z,18.53
2023-04-16T20:33:21.679Z,24.23
2023-04-16T20:35:49.074Z,23.27
2023-04-16T20:38:15.586Z,16.00
2023-04-16T20:40:44.659Z,14.50
2023-04-16T20:43:14.210Z,18.53
2023-04-16T20:45:41.238Z,13.23
2023-04-16T20:48:07.984Z,22.77
2023-04-16T20:50:34.571Z,13.33
2023-04-16T20:53:01.118Z,10.00
2023-04-16T20:55:27.673Z,22.03
2023-04-16T20:57:54.201Z,7.30
2023-04-16T21:00:20.905Z,10.57
2023-04-16T21:02:47.598Z,29.70
2023-04-16T21:05:14.632Z,14.80
2023-04-16T21:07:41.517Z,12.10
2023-04-16T21:10:09.293Z,9.10
2023-04-16T21:12:36.490Z,9.53
2023-04-16T21:15:04.165Z,11.40
2023-04-16T21:17:31.061Z,11.17
2023-04-16T21:19:57.725Z,12.20
2023-04-16T21:22:24.331Z,15.53
2023-04-16T21:24:50.883Z,8.63
2023-04-16T21:27:17.567Z,9.97
2023-04-16T21:29:44.058Z,9.20
2023-04-16T21:32:10.589Z,8.33
2023-04-16T21:34:37.107Z,8.87
2023-04-16T21:37:03.851Z,12.97
2023-04-16T21:39:31.131Z,8.47
2023-04-16T21:41:58.020Z,9.83
2023-04-16T21:44:24.587Z,5.53
2023-04-16T21:46:51.250Z,11.67
2023-04-16T21:49:17.789Z,5.87
2023-04-16T21:51:46.066Z,5.20
2023-04-16T21:54:12.605Z,6.13
2023-04-16T21:56:39.403Z,6.47
2023-04-16T21:59:05.956Z,8.00
2023-04-16T22:01:32.638Z,4.83
2023-04-16T22:03:59.366Z,7.20
2023-04-16T22:06:27.166Z,12.13
2023-04-16T22:08:53.696Z,7.23
2023-04-16T22:11:20.722Z,8.47
2023-04-16T22:13:47.598Z,7.80
2023-04-16T22:16:14.410Z,9.97
2023-04-16T22:18:41.201Z,8.07
2023-04-16T22:21:07.769Z,8.50
2023-04-16T22:23:34.298Z,6.67
2023-04-16T22:26:02.682Z,5.73
2023-04-16T22:28:29.278Z,7.27
2023-04-16T22:30:56.362Z,5.23
2023-04-16T22:33:22.889Z,4.80
2023-04-16T22:35:49.466Z,5.33
2023-04-16T22:38:16.551Z,5.97
2023-04-16T22:40:43.114Z,8.00
2023-04-16T22:43:09.655Z,3.53
2023-04-16T22:45:37.435Z,4.63
2023-04-16T22:48:04.234Z,6.13
2023-04-16T22:50:32.006Z,6.07
2023-04-16T22:52:58.560Z,6.60
2023-04-16T22:55:25.124Z,4.87
2023-04-16T22:57:51.693Z,5.53
2023-04-16T23:00:18.903Z,4.83
2023-04-16T23:02:45.723Z,4.83
2023-04-16T23:05:12.343Z,3.87
2023-04-16T23:07:38.913Z,4.87
2023-04-16T23:10:06.214Z,6.70
2023-04-16T23:12:32.782Z,7.57
2023-04-16T23:15:00.537Z,5.27
2023-04-16T23:17:27.295Z,5.77
2023-04-16T23:19:53.925Z,3.67
2023-04-16T23:22:20.528Z,4.03
2023-04-16T23:24:47.205Z,4.20
2023-04-16T23:27:13.700Z,4.27
2023-04-16T23:29:40.427Z,3.47
2023-04-16T23:32:07.058Z,4.23
2023-04-16T23:34:33.567Z,3.97
2023-04-16T23:37:00.221Z,7.40
2023-04-16T23:39:27.228Z,5.97
2023-04-16T23:41:53.835Z,3.53
2023-04-16T23:44:20.358Z,4.57
2023-04-16T23:46:46.946Z,4.13
2023-04-16T23:49:13.590Z,2.43
2023-04-16T23:51:40.143Z,4.33
2023-04-16T23:54:06.658Z,4.13
2023-04-16T23:56:33.171Z,3.30
2023-04-16T23:58:59.699Z,3.90
